createdAt,value
2022-11-01T00:02:12.286Z,101461.81
2022-11-01T00:04:39.669Z,101461.94
2022-11-01T00:07:07.205Z,101458.66
2022-11-01T00:09:36.813Z,101460.38
2022-11-01T00:12:04.091Z,101459.06
2022-11-01T00:14:31.275Z,101462.69
2022-11-01T00:16:58.311Z,101455.44
2022-11-01T00:19:27.689Z,101464.50
2022-11-01T00:21:54.757Z,101455.03
2022-11-01T00:24:21.831Z,101456.63
2022-11-01T00:29:22.924Z,101453.41
2022-11-01T00:31:52.462Z,101452.53
2022-11-01T00:34:19.555Z,101446.66
2022-11-01T00:36:46.727Z,101436.94
2022-11-01T00:39:15.552Z,101436.63
2022-11-01T00:41:42.770Z,101439.66
2022-11-01T00:44:09.848Z,101436.97
2022-11-01T00:46:36.997Z,101433.28
2022-11-01T00:49:06.378Z,101432.16
2022-11-01T00:51:33.434Z,101428.22
2022-11-01T00:54:00.554Z,101416.16
2022-11-01T00:56:27.666Z,101413.28
2022-11-01T00:58:56.857Z,101413.31
2022-11-01T01:01:23.998Z,101413.16
2022-11-01T01:03:51.194Z,101412.81
2022-11-01T01:06:18.334Z,101404.34
2022-11-01T01:08:47.676Z,101408.16
2022-11-01T01:11:15.028Z,101407.78
2022-11-01T01:13:42.619Z,101409.06
2022-11-01T01:16:12.142Z,101409.47
2022-11-01T01:18:39.592Z,101406.28
2022-11-01T01:21:06.909Z,101405.88
2022-11-01T01:23:34.237Z,101406.97
2022-11-01T01:26:09.515Z,101399.78
2022-11-01T01:28:41.839Z,101400.56
2022-11-01T01:31:14.872Z,101397.59
2022-11-01T01:33:42.123Z,101395.78
2022-11-01T01:36:09.302Z,101397.28
2022-11-01T01:38:41.309Z,101387.78
2022-11-01T01:41:27.085Z,101394.31
2022-11-01T01:43:54.212Z,101386.13
2022-11-01T01:46:23.965Z,101383.22
2022-11-01T01:48:57.707Z,101383.13
2022-11-01T01:51:27.879Z,101385.16
2022-11-01T01:53:58.317Z,101383.84
2022-11-01T01:56:35.223Z,101382.31
2022-11-01T01:59:11.593Z,101376.47
2022-11-01T02:01:41.319Z,101376.09
2022-11-01T02:04:39.442Z,101377.16
2022-11-01T02:07:08.456Z,101379.63
2022-11-01T02:09:36.762Z,101377.56
2022-11-01T02:12:04.412Z,101375.16
2022-11-01T02:14:31.995Z,101380.56
2022-11-01T02:17:21.291Z,101375.47
2022-11-01T02:19:57.975Z,101372.50
2022-11-01T02:23:02.956Z,101370.50
2022-11-01T02:26:21.807Z,101368.34
2022-11-01T02:29:28.334Z,101356.06
2022-11-01T02:32:01.080Z,101350.19
2022-11-01T02:35:27.277Z,101362.88
2022-11-01T02:38:06.140Z,101360.56
2022-11-01T02:41:03.235Z,101366.22
2022-11-01T02:43:55.647Z,101363.31
2022-11-01T02:46:42.557Z,101366.69
2022-11-01T02:49:15.342Z,101367.63
2022-11-01T02:51:47.471Z,101372.56
2022-11-01T02:54:28.090Z,101374.09
2022-11-01T02:56:58.238Z,101373.00
2022-11-01T02:59:28.454Z,101382.25
2022-11-01T03:02:40.056Z,101384.81
2022-11-01T03:05:23.876Z,101387.59
2022-11-01T03:08:05.506Z,101388.38
2022-11-01T03:11:14.404Z,101395.97
2022-11-01T03:14:08.806Z,101387.81
2022-11-01T03:16:47.453Z,101398.88
2022-11-01T03:19:43.739Z,101393.94
2022-11-01T03:22:36.554Z,101398.75
2022-11-01T03:25:30.974Z,101394.91
2022-11-01T03:28:07.534Z,101384.59
2022-11-01T03:30:42.116Z,101365.78
2022-11-01T03:33:14.787Z,101348.34
2022-11-01T03:35:47.759Z,101355.88
2022-11-01T03:38:20.016Z,101385.31
2022-11-01T03:40:57.114Z,101385.81
2022-11-01T03:43:27.657Z,101370.97
2022-11-01T03:45:55.463Z,101367.06
2022-11-01T03:48:22.598Z,101351.16
2022-11-01T03:50:56.356Z,101349.53
2022-11-01T03:53:24.646Z,101363.38
2022-11-01T03:55:52.547Z,101396.84
2022-11-01T03:58:22.187Z,101383.59
2022-11-01T04:00:51.878Z,101374.59
2022-11-01T04:03:18.964Z,101392.25
2022-11-01T04:05:46.049Z,101370.16
2022-11-01T04:08:13.098Z,101346.03
2022-11-01T04:10:40.232Z,101371.28
2022-11-01T04:13:09.699Z,101359.25
2022-11-01T04:15:55.430Z,101360.03
2022-11-01T04:18:45.633Z,101366.72
2022-11-01T04:21:15.323Z,101364.66
2022-11-01T04:23:43.824Z,101345.84
2022-11-01T04:26:16.550Z,101341.09
2022-11-01T04:28:57.199Z,101346.09
2022-11-01T04:31:37.047Z,101339.47
2022-11-01T04:34:05.718Z,101355.44
2022-11-01T04:36:32.854Z,101358.94
2022-11-01T04:39:00.103Z,101343.81
2022-11-01T04:41:29.407Z,101344.34
2022-11-01T04:44:00.622Z,101350.44
2022-11-01T04:46:31.926Z,101347.16
2022-11-01T04:48:59.055Z,101327.44
2022-11-01T04:51:26.289Z,101313.91
2022-11-01T04:53:53.427Z,101302.06
2022-11-01T04:56:20.451Z,101291.84
2022-11-01T04:58:47.524Z,101298.06
2022-11-01T05:01:15.439Z,101299.91
2022-11-01T05:03:43.706Z,101286.63
2022-11-01T05:06:10.749Z,101272.53
2022-11-01T05:08:37.861Z,101278.19
2022-11-01T05:11:04.957Z,101283.81
2022-11-01T05:13:34.188Z,101272.50
2022-11-01T05:16:21.155Z,101267.81
2022-11-01T05:18:50.850Z,101255.25
2022-11-01T05:21:20.808Z,101264.50
2022-11-01T05:23:49.209Z,101263.84
2022-11-01T05:26:16.257Z,101254.50
2022-11-01T05:28:43.506Z,101246.13
2022-11-01T05:31:11.032Z,101252.22
2022-11-01T05:33:38.090Z,101254.13
2022-11-01T05:36:05.742Z,101251.25
2022-11-01T05:38:37.626Z,101254.34
2022-11-01T05:41:04.973Z,101244.91
2022-11-01T05:43:32.079Z,101245.56
2022-11-01T05:45:59.103Z,101232.84
2022-11-01T05:48:26.235Z,101248.22
2022-11-01T05:50:54.835Z,101244.22
2022-11-01T05:53:21.885Z,101241.44
2022-11-01T05:55:51.117Z,101249.00
2022-11-01T05:58:18.135Z,101256.94
2022-11-01T06:00:45.217Z,101273.06
2022-11-01T06:03:12.242Z,101272.75
2022-11-01T06:05:39.839Z,101269.25
2022-11-01T06:08:07.560Z,101254.13
2022-11-01T06:10:35.006Z,101244.84
2022-11-01T06:13:04.731Z,101240.34
2022-11-01T06:15:37.217Z,101242.91
2022-11-01T06:18:09.197Z,101237.88
2022-11-01T06:20:38.401Z,101219.56
2022-11-01T06:23:11.632Z,101228.22
2022-11-01T06:25:38.808Z,101221.09
2022-11-01T06:28:05.834Z,101206.84
2022-11-01T06:30:32.920Z,101203.09
2022-11-01T06:33:03.186Z,101182.31
2022-11-01T06:35:30.691Z,101186.50
2022-11-01T06:38:07.035Z,101173.16
2022-11-01T06:40:37.915Z,101177.66
2022-11-01T06:43:06.436Z,101175.28
2022-11-01T06:45:34.053Z,101168.47
2022-11-01T06:48:01.507Z,101159.66
2022-11-01T06:50:28.842Z,101152.13
2022-11-01T06:53:00.354Z,101157.44
2022-11-01T06:55:28.939Z,101138.47
2022-11-01T06:58:01.430Z,101152.94
2022-11-01T07:00:30.598Z,101149.28
2022-11-01T07:03:05.787Z,101150.03
2022-11-01T07:05:37.441Z,101150.16
2022-11-01T07:08:08.555Z,101155.34
2022-11-01T07:10:39.013Z,101153.81
2022-11-01T07:13:09.240Z,101149.03
2022-11-01T07:15:36.505Z,101149.91
2022-11-01T07:18:06.478Z,101148.41
2022-11-01T07:20:41.268Z,101147.56
2022-11-01T07:23:17.324Z,101142.53
2022-11-01T07:25:44.773Z,101133.66
2022-11-01T07:28:12.303Z,101140.72
2022-11-01T07:30:39.545Z,101140.16
2022-11-01T07:33:07.074Z,101142.63
2022-11-01T07:35:35.929Z,101150.25
2022-11-01T07:38:06.422Z,101155.84
2022-11-01T07:40:41.821Z,101171.31
2022-11-01T07:43:09.182Z,101208.16
2022-11-01T07:45:37.336Z,101240.16
2022-11-01T07:48:10.450Z,101232.94
2022-11-01T07:50:40.163Z,101215.75
2022-11-01T07:53:16.709Z,101210.28
2022-11-01T07:55:44.998Z,101219.19
2022-11-01T07:58:14.878Z,101219.16
2022-11-01T08:00:46.381Z,101191.91
2022-11-01T08:03:16.933Z,101184.53
2022-11-01T08:05:45.872Z,101190.06
2022-11-01T08:08:14.604Z,101200.16
2022-11-01T08:10:42.523Z,101200.88
2022-11-01T08:13:19.352Z,101206.66
2022-11-01T08:15:48.363Z,101199.28
2022-11-01T08:18:16.869Z,101211.56
2022-11-01T08:20:44.112Z,101201.56
2022-11-01T08:23:11.747Z,101208.41
2022-11-01T08:25:41.583Z,101205.44
2022-11-01T08:28:16.283Z,101234.31
2022-11-01T08:30:45.443Z,101222.88
2022-11-01T08:33:12.604Z,101237.03
2022-11-01T08:35:40.017Z,101240.44
2022-11-01T08:38:07.262Z,101240.44
2022-11-01T08:40:34.750Z,101257.28
2022-11-01T08:43:02.652Z,101243.63
2022-11-01T08:45:30.081Z,101250.19
2022-11-01T08:48:03.718Z,101246.91
2022-11-01T08:50:33.909Z,101239.22
2022-11-01T08:53:11.142Z,101244.84
2022-11-01T08:55:38.587Z,101253.78
2022-11-01T08:58:07.152Z,101261.09
2022-11-01T09:00:35.313Z,101257.56
2022-11-01T09:03:02.541Z,101259.66
2022-11-01T09:05:31.448Z,101267.28
2022-11-01T09:08:01.409Z,101248.50
2022-11-01T09:10:31.060Z,101258.56
2022-11-01T09:13:02.213Z,101250.19
2022-11-01T09:15:30.211Z,101262.13
2022-11-01T09:17:57.464Z,101261.06
2022-11-01T09:20:24.517Z,101252.16
2022-11-01T09:22:54.974Z,101244.00
2022-11-01T09:25:22.094Z,101221.84
2022-11-01T09:27:49.115Z,101233.63
2022-11-01T09:30:18.876Z,101227.97
2022-11-01T09:32:46.370Z,101232.59
2022-11-01T09:35:13.432Z,101217.09
2022-11-01T09:37:42.949Z,101210.97
2022-11-01T09:40:13.040Z,101201.00
2022-11-01T09:42:45.364Z,101202.13
2022-11-01T09:45:34.581Z,101193.69
2022-11-01T09:48:05.797Z,101191.75
2022-11-01T09:50:43.943Z,101200.34
2022-11-01T09:53:29.298Z,101191.63
2022-11-01T09:56:44.298Z,101194.63
2022-11-01T09:59:23.361Z,101183.03
2022-11-01T10:02:45.828Z,101185.06
2022-11-01T10:05:18.754Z,101183.84
2022-11-01T10:08:27.472Z,101173.38
2022-11-01T10:11:10.020Z,101175.84
2022-11-01T10:14:28.729Z,101176.66
2022-11-01T10:17:16.604Z,101178.09
2022-11-01T10:19:48.764Z,101168.81
2022-11-01T10:22:25.654Z,101161.13
2022-11-01T10:25:08.996Z,101178.41
2022-11-01T10:27:55.410Z,101174.41
2022-11-01T10:30:22.530Z,101156.63
2022-11-01T10:33:17.094Z,101164.47
2022-11-01T10:35:46.435Z,101163.94
2022-11-01T10:39:23.097Z,101164.59
2022-11-01T10:41:53.756Z,101158.50
2022-11-01T10:44:33.015Z,101156.63
2022-11-01T10:47:08.298Z,101171.88
2022-11-01T10:53:02.714Z,101153.25
2022-11-01T10:55:57.719Z,101157.94
2022-11-01T10:58:47.378Z,101146.72
2022-11-01T11:01:24.304Z,101152.03
2022-11-01T11:03:52.289Z,101154.31
2022-11-01T11:06:22.205Z,101155.34
2022-11-01T11:08:55.637Z,101163.75
2022-11-01T11:11:42.519Z,101152.63
2022-11-01T11:14:11.735Z,101149.38
2022-11-01T11:17:00.300Z,101155.50
2022-11-01T11:19:30.279Z,101154.84
2022-11-01T11:21:59.252Z,101161.06
2022-11-01T11:24:43.913Z,101151.75
2022-11-01T11:27:27.341Z,101156.22
2022-11-01T11:30:05.356Z,101150.81
2022-11-01T11:32:47.871Z,101160.81
2022-11-01T11:35:14.821Z,101162.50
2022-11-01T11:37:58.417Z,101153.47
2022-11-01T11:40:38.894Z,101154.09
2022-11-01T11:43:23.156Z,101168.28
2022-11-01T11:46:21.002Z,101169.25
2022-11-01T11:49:01.159Z,101166.00
2022-11-01T11:51:31.030Z,101163.03
2022-11-01T11:54:22.595Z,101164.75
2022-11-01T11:57:24.998Z,101154.72
2022-11-01T12:00:00.456Z,101144.47
2022-11-01T12:02:39.253Z,101147.72
2022-11-01T12:05:19.202Z,101158.41
2022-11-01T12:07:50.548Z,101164.16
2022-11-01T12:10:45.731Z,101179.78
2022-11-01T12:13:37.796Z,101174.84
2022-11-01T12:16:17.106Z,101174.03
2022-11-01T12:19:02.132Z,101167.88
2022-11-01T12:21:41.319Z,101171.81
2022-11-01T12:24:49.378Z,101180.81
2022-11-01T12:27:22.049Z,101185.47
2022-11-01T12:29:59.751Z,101178.22
2022-11-01T12:32:32.234Z,101179.50
2022-11-01T12:35:04.930Z,101188.81
2022-11-01T12:37:53.219Z,101182.66
2022-11-01T12:40:43.527Z,101181.78
2022-11-01T12:43:31.314Z,101172.34
2022-11-01T12:46:19.263Z,101160.84
2022-11-01T12:49:11.567Z,101165.69
2022-11-01T12:51:50.642Z,101166.56
2022-11-01T12:54:20.087Z,101165.25
2022-11-01T12:56:47.182Z,101174.56
2022-11-01T12:59:23.374Z,101169.88
2022-11-01T13:02:28.560Z,101170.84
2022-11-01T13:05:07.893Z,101164.16
2022-11-01T13:08:11.182Z,101176.91
2022-11-01T13:10:44.164Z,101172.34
2022-11-01T13:14:01.680Z,101178.91
2022-11-01T13:16:40.129Z,101183.22
2022-11-01T13:19:10.209Z,101162.31
2022-11-01T13:21:58.504Z,101161.88
2022-11-01T13:24:56.373Z,101156.16
2022-11-01T13:27:33.143Z,101148.56
2022-11-01T13:30:04.524Z,101150.59
2022-11-01T13:32:48.922Z,101151.88
2022-11-01T13:35:34.884Z,101152.25
2022-11-01T13:38:25.672Z,101156.72
2022-11-01T13:41:34.278Z,101159.63
2022-11-01T13:44:19.296Z,101166.41
2022-11-01T13:47:16.748Z,101162.91
2022-11-01T13:50:21.735Z,101155.13
2022-11-01T13:53:14.028Z,101155.94
2022-11-01T13:56:02.483Z,101161.91
2022-11-01T13:58:31.510Z,101155.56
2022-11-01T14:01:28.419Z,101161.28
2022-11-01T14:04:14.392Z,101157.19
2022-11-01T14:07:05.154Z,101151.03
2022-11-01T14:09:42.252Z,101145.09
2022-11-01T14:12:09.747Z,101142.81
2022-11-01T14:14:38.725Z,101146.94
2022-11-01T14:17:21.010Z,101138.84
2022-11-01T14:19:55.704Z,101134.41
2022-11-01T14:22:22.664Z,101133.38
2022-11-01T14:25:03.413Z,101139.31
2022-11-01T14:27:37.950Z,101148.75
2022-11-01T14:30:28.662Z,101146.31
2022-11-01T14:32:59.682Z,101152.66
2022-11-01T14:35:33.564Z,101142.00
2022-11-01T14:38:11.834Z,101139.56
2022-11-01T14:40:53.756Z,101136.25
2022-11-01T14:43:25.397Z,101141.78
2022-11-01T14:45:59.847Z,101140.31
2022-11-01T14:48:42.043Z,101146.09
2022-11-01T14:51:21.567Z,101135.84
2022-11-01T14:54:20.377Z,101141.59
2022-11-01T14:56:55.861Z,101137.06
2022-11-01T14:59:27.384Z,101136.66
2022-11-01T15:02:02.648Z,101133.78
2022-11-01T15:04:44.223Z,101131.75
2022-11-01T15:07:27.845Z,101132.91
2022-11-01T15:10:10.505Z,101137.25
2022-11-01T15:12:58.869Z,101148.34
2022-11-01T15:15:31.356Z,101159.63
2022-11-01T15:18:22.018Z,101157.94
2022-11-01T15:20:55.003Z,101162.00
2022-11-01T15:23:45.567Z,101157.50
2022-11-01T15:26:16.002Z,101167.69
2022-11-01T15:29:20.102Z,101168.56
2022-11-01T15:31:58.745Z,101169.19
2022-11-01T15:34:34.686Z,101173.97
2022-11-01T15:37:20.749Z,101178.03
2022-11-01T15:39:48.339Z,101185.91
2022-11-01T15:42:23.678Z,101188.78
2022-11-01T15:44:50.915Z,101194.06
2022-11-01T15:47:23.900Z,101203.13
2022-11-01T15:50:04.991Z,101201.13
2022-11-01T15:52:34.777Z,101196.19
2022-11-01T15:55:47.867Z,101188.38
2022-11-01T15:58:26.732Z,101194.75
2022-11-01T16:01:10.593Z,101179.34
2022-11-01T16:04:03.253Z,101185.72
2022-11-01T16:06:41.009Z,101193.72
2022-11-01T16:09:28.389Z,101204.41
2022-11-01T16:12:02.565Z,101209.13
2022-11-01T16:14:37.699Z,101219.19
2022-11-01T16:17:20.649Z,101206.66
2022-11-01T16:19:51.730Z,101212.41
2022-11-01T16:22:31.215Z,101211.78
2022-11-01T16:25:07.361Z,101209.75
2022-11-01T16:27:53.841Z,101212.41
2022-11-01T16:30:43.005Z,101220.22
2022-11-01T16:33:33.782Z,101212.81
2022-11-01T16:36:04.740Z,101213.66
2022-11-01T16:38:37.282Z,101208.94
2022-11-01T16:41:24.818Z,101212.19
2022-11-01T16:43:57.850Z,101210.34
2022-11-01T16:46:30.305Z,101217.56
2022-11-01T16:49:15.551Z,101223.72
2022-11-01T16:51:43.009Z,101220.84
2022-11-01T16:54:10.515Z,101227.59
2022-11-01T16:56:45.144Z,101233.94
2022-11-01T16:59:18.023Z,101230.50
2022-11-01T17:01:49.340Z,101237.28
2022-11-01T17:04:19.421Z,101241.34
2022-11-01T17:06:46.481Z,101235.19
2022-11-01T17:09:16.688Z,101242.63
2022-11-01T17:11:50.743Z,101242.00
2022-11-01T17:14:22.195Z,101235.19
2022-11-01T17:16:56.337Z,101232.34
2022-11-01T17:19:31.836Z,101234.38
2022-11-01T17:22:07.243Z,101231.09
2022-11-01T17:24:35.393Z,101241.19
2022-11-01T17:27:05.382Z,101235.59
2022-11-01T17:29:33.258Z,101236.41
2022-11-01T17:32:04.236Z,101251.22
2022-11-01T17:34:31.343Z,101245.47
2022-11-01T17:36:58.555Z,101238.69
2022-11-01T17:39:28.977Z,101238.69
2022-11-01T17:41:57.034Z,101241.38
2022-11-01T17:44:26.601Z,101246.28
2022-11-01T17:46:53.749Z,101244.84
2022-11-01T17:49:23.714Z,101239.31
2022-11-01T17:51:54.773Z,101245.91
2022-11-01T17:54:23.482Z,101243.81
2022-11-01T17:56:51.448Z,101240.75
2022-11-01T17:59:18.862Z,101248.53
2022-11-01T18:01:46.260Z,101244.44
2022-11-01T18:04:13.518Z,101244.25
2022-11-01T18:06:40.824Z,101240.13
2022-11-01T18:09:27.188Z,101250.41
2022-11-01T18:12:15.113Z,101259.03
2022-11-01T18:15:02.623Z,101250.59
2022-11-01T18:17:52.516Z,101248.97
2022-11-01T18:20:46.818Z,101250.81
2022-11-01T18:23:20.064Z,101243.22
2022-11-01T18:25:49.220Z,101233.56
2022-11-01T18:28:26.522Z,101233.56
2022-11-01T18:31:02.313Z,101230.88
2022-11-01T18:33:41.746Z,101232.75
2022-11-01T18:36:26.309Z,101234.78
2022-11-01T18:39:41.785Z,101221.66
2022-11-01T18:42:10.515Z,101223.06
2022-11-01T18:44:40.654Z,101224.13
2022-11-01T18:47:21.250Z,101214.25
2022-11-01T18:49:52.188Z,101232.75
2022-11-01T18:52:22.861Z,101232.13
2022-11-01T18:54:56.522Z,101223.31
2022-11-01T18:57:24.897Z,101231.28
2022-11-01T18:59:56.168Z,101222.28
2022-11-01T19:02:28.322Z,101241.38
2022-11-01T19:05:21.388Z,101230.09
2022-11-01T19:08:20.286Z,101233.78
2022-11-01T19:10:43.365Z,101236.84
2022-11-01T19:13:32.418Z,101238.47
2022-11-01T19:16:02.033Z,101245.69
2022-11-01T19:18:29.938Z,101238.91
2022-11-01T19:21:00.946Z,101245.47
2022-11-01T19:23:38.966Z,101243.41
2022-11-01T19:26:24.156Z,101257.75
2022-11-01T19:28:53.830Z,101252.84
2022-11-01T19:31:29.600Z,101258.22
2022-11-01T19:34:06.227Z,101256.56
2022-11-01T19:39:37.641Z,101263.13
2022-11-01T19:42:32.215Z,101268.09
2022-11-01T19:45:05.023Z,101260.69
2022-11-01T19:47:41.847Z,101262.09
2022-11-01T19:50:27.887Z,101269.69
2022-11-01T19:52:59.044Z,101268.06
2022-11-01T19:55:44.384Z,101267.03
2022-11-01T19:58:27.969Z,101268.50
2022-11-01T20:01:24.144Z,101271.75
2022-11-01T20:04:00.636Z,101273.00
2022-11-01T20:06:27.961Z,101280.59
2022-11-01T20:09:18.447Z,101277.72
2022-11-01T20:11:45.910Z,101286.16
2022-11-01T20:14:13.292Z,101292.94
2022-11-01T20:16:40.912Z,101292.72
2022-11-01T20:19:13.240Z,101284.91
2022-11-01T20:21:44.503Z,101294.97
2022-11-01T20:24:11.615Z,101299.09
2022-11-01T20:26:38.742Z,101300.50
2022-11-01T20:29:08.462Z,101292.50
2022-11-01T20:31:35.549Z,101293.94
2022-11-01T20:34:02.826Z,101297.63
2022-11-01T20:36:30.028Z,101300.53
2022-11-01T20:38:59.446Z,101300.09
2022-11-01T20:41:27.331Z,101304.03
2022-11-01T20:43:54.392Z,101296.00
2022-11-01T20:46:24.107Z,101301.34
2022-11-01T20:48:51.248Z,101311.19
2022-11-01T20:51:18.438Z,101313.25
2022-11-01T20:53:45.502Z,101315.72
2022-11-01T20:56:15.056Z,101313.22
2022-11-01T20:58:42.172Z,101311.00
2022-11-01T21:01:19.826Z,101305.25
2022-11-01T21:03:51.764Z,101310.81
2022-11-01T21:06:19.276Z,101296.84
2022-11-01T21:08:47.724Z,101305.06
2022-11-01T21:11:44.137Z,101304.22
2022-11-01T21:14:21.809Z,101303.41
2022-11-01T21:16:53.444Z,101308.75
2022-11-01T21:19:26.509Z,101308.34
2022-11-01T21:21:59.043Z,101309.56
2022-11-01T21:24:37.390Z,101306.28
2022-11-01T21:27:13.153Z,101308.59
2022-11-01T21:29:49.225Z,101305.66
2022-11-01T21:32:30.013Z,101307.09
2022-11-01T21:34:58.473Z,101309.34
2022-11-01T21:37:29.957Z,101308.53
2022-11-01T21:40:05.202Z,101302.63
2022-11-01T21:42:36.518Z,101308.97
2022-11-01T21:45:38.906Z,101320.28
2022-11-01T21:48:34.415Z,101321.88
2022-11-01T21:51:01.480Z,101316.13
2022-11-01T21:53:28.493Z,101314.31
2022-11-01T21:55:55.601Z,101312.84
2022-11-01T21:58:25.034Z,101310.78
2022-11-01T22:00:52.100Z,101313.69
2022-11-01T22:03:19.220Z,101309.16
2022-11-01T22:05:46.290Z,101308.38
2022-11-01T22:08:13.406Z,101305.06
2022-11-01T22:10:40.498Z,101314.75
2022-11-01T22:13:10.229Z,101309.16
2022-11-01T22:15:37.529Z,101310.84
2022-11-01T22:18:06.947Z,101308.56
2022-11-01T22:20:36.317Z,101306.75
2022-11-01T22:23:03.598Z,101304.47
2022-11-01T22:25:30.920Z,101306.50
2022-11-01T22:27:57.983Z,101307.72
2022-11-01T22:30:25.185Z,101310.59
2022-11-01T22:32:52.224Z,101307.31
2022-11-01T22:35:19.314Z,101309.59
2022-11-01T22:37:46.497Z,101303.41
2022-11-01T22:40:14.977Z,101299.53
2022-11-01T22:42:42.003Z,101301.38
2022-11-01T22:45:17.937Z,101303.84
2022-11-01T22:47:48.866Z,101308.16
2022-11-01T22:50:27.951Z,101310.19
2022-11-01T22:52:55.097Z,101303.84
2022-11-01T22:55:27.449Z,101308.34
2022-11-01T22:58:24.709Z,101304.22
2022-11-01T23:00:51.882Z,101304.63
2022-11-01T23:03:38.392Z,101312.22
2022-11-01T23:06:34.718Z,101310.41
2022-11-01T23:09:15.137Z,101312.06
2022-11-01T23:12:10.515Z,101320.28
2022-11-01T23:14:40.162Z,101313.28
2022-11-01T23:17:21.874Z,101317.81
2022-11-01T23:20:15.741Z,101319.88
2022-11-01T23:22:43.018Z,101315.75
2022-11-01T23:25:10.627Z,101317.19
2022-11-01T23:27:37.872Z,101324.56
2022-11-01T23:30:05.495Z,101318.97
2022-11-01T23:32:32.708Z,101313.47
2022-11-01T23:35:18.117Z,101314.91
2022-11-01T23:37:46.506Z,101307.94
2022-11-01T23:40:21.278Z,101321.69
2022-11-01T23:42:49.079Z,101320.47
2022-11-01T23:45:33.992Z,101332.59
2022-11-01T23:48:02.385Z,101329.75
2022-11-01T23:50:35.881Z,101332.22
2022-11-01T23:53:06.490Z,101327.03
2022-11-01T23:55:48.315Z,101328.28
